Time;durP1;ratioP1;P1;durP2;ratioP2;P2;SDS_P1;SDS_P2;PMS_P1;PMS_P2;Temp;Humidity;BMP_temperature;BMP_pressure;BME280_temperature;BME280_humidity;BME280_pressure;Samples;Min_cycle;Max_cycle;Signal;HPM_P1;HPM_P2
2020/06/30 00:00:40;;;;;;;2.5;2.1;;;;;;;13.37;100;95087.89;;;;
2020/06/30 00:01:40;;;;;;;2.5;2.1;;;;;;;13.37;100;95087.89;;;;
2020/06/30 00:02:41;;;;;;;2.5;2.1;;;;;;;13.37;100;95087.89;;;;
2020/06/30 00:03:41;;;;;;;2.5;2.1;;;;;;;13.37;100;95087.89;;;;
2020/06/30 00:04:42;;;;;;;2.65;2.45;;;;;;;13.38;100;95078.14;;;;
2020/06/30 00:05:42;;;;;;;2.65;2.45;;;;;;;13.38;100;95078.14;;;;
2020/06/30 00:06:42;;;;;;;2.65;2.45;;;;;;;13.38;100;95078.14;;;;
2020/06/30 00:07:43;;;;;;;2.65;2.45;;;;;;;13.38;100;95078.14;;;;
2020/06/30 00:08:43;;;;;;;2.65;2.45;;;;;;;13.38;100;95078.14;;;;
2020/06/30 00:09:44;;;;;;;2.65;2.45;;;;;;;13.38;100;95078.14;;;;
2020/06/30 00:10:44;;;;;;;2.65;2.45;;;;;;;13.38;100;95078.14;;;;
2020/06/30 00:11:45;;;;;;;2.65;2.45;;;;;;;13.38;100;95078.14;;;;
2020/06/30 00:12:45;;;;;;;2.65;2.45;;;;;;;13.38;100;95078.14;;;;
2020/06/30 00:13:46;;;;;;;2.65;2.45;;;;;;;13.38;100;95078.14;;;;
2020/06/30 00:14:46;;;;;;;2.8;2.3;;;;;;;13.22;100;95081.8;;;;
2020/06/30 00:15:46;;;;;;;2.8;2.3;;;;;;;13.22;100;95081.8;;;;
2020/06/30 00:16:47;;;;;;;2.8;2.3;;;;;;;13.22;100;95081.8;;;;
2020/06/30 00:17:47;;;;;;;2.8;2.3;;;;;;;13.22;100;95081.8;;;;
2020/06/30 00:18:48;;;;;;;2.8;2.3;;;;;;;13.22;100;95081.8;;;;
2020/06/30 00:19:48;;;;;;;2.8;2.3;;;;;;;13.22;100;95081.8;;;;
2020/06/30 00:20:49;;;;;;;2.8;2.3;;;;;;;13.22;100;95081.8;;;;
2020/06/30 00:21:49;;;;;;;2.8;2.3;;;;;;;13.22;100;95081.8;;;;
2020/06/30 00:22:50;;;;;;;2.8;2.3;;;;;;;13.22;100;95081.8;;;;
2020/06/30 00:23:50;;;;;;;2.8;2.3;;;;;;;13.22;100;95081.8;;;;
2020/06/30 00:24:50;;;;;;;2.8;2.3;;;;;;;13.22;100;95081.8;;;;
2020/06/30 00:25:51;;;;;;;2.8;2.3;;;;;;;13.22;100;95081.8;;;;
2020/06/30 00:26:51;;;;;;;2.8;2.3;;;;;;;13.22;100;95081.8;;;;
2020/06/30 00:27:52;;;;;;;2.8;2.3;;;;;;;13.22;100;95081.8;;;;
2020/06/30 00:28:52;;;;;;;2.8;2.3;;;;;;;13.22;100;95081.8;;;;
2020/06/30 00:29:53;;;;;;;2.8;2.3;;;;;;;13.22;100;95081.8;;;;
2020/06/30 00:30:53;;;;;;;2.8;2.3;;;;;;;13.22;100;95081.8;;;;
2020/06/30 00:31:54;;;;;;;2.8;2.3;;;;;;;13.22;100;95081.8;;;;
2020/06/30 00:32:54;;;;;;;2.8;2.3;;;;;;;13.22;100;95081.8;;;;
2020/06/30 00:33:55;;;;;;;2.8;2.3;;;;;;;13.22;100;95081.8;;;;
2020/06/30 00:34:55;;;;;;;2.8;2.3;;;;;;;13.22;100;95081.8;;;;
2020/06/30 00:35:55;;;;;;;3.4;2.45;;;;;;;12.99;100;95078.02;;;;
2020/06/30 00:36:56;;;;;;;3.4;2.45;;;;;;;12.99;100;95078.02;;;;
2020/06/30 00:37:57;;;;;;;3.4;2.45;;;;;;;12.99;100;95078.02;;;;
2020/06/30 00:38:57;;;;;;;3.4;2.45;;;;;;;12.99;100;95078.02;;;;
2020/06/30 00:39:58;;;;;;;3.4;2.45;;;;;;;12.99;100;95078.02;;;;
2020/06/30 00:40:58;;;;;;;3.4;2.45;;;;;;;12.99;100;95078.02;;;;
2020/06/30 00:41:59;;;;;;;3.4;2.45;;;;;;;12.99;100;95078.02;;;;
2020/06/30 00:42:59;;;;;;;3.4;2.45;;;;;;;12.99;100;95078.02;;;;
2020/06/30 00:44:00;;;;;;;3.4;2.45;;;;;;;12.99;100;95078.02;;;;
2020/06/30 00:45:00;;;;;;;3.4;2.45;;;;;;;12.99;100;95078.02;;;;
2020/06/30 00:46:00;;;;;;;3.4;2.45;;;;;;;12.99;100;95078.02;;;;
2020/06/30 00:47:02;;;;;;;2.65;2.3;;;;;;;13.03;100;95084.59;;;;
2020/06/30 00:48:02;;;;;;;2.65;2.3;;;;;;;13.03;100;95084.59;;;;
2020/06/30 00:49:03;;;;;;;2.65;2.3;;;;;;;13.03;100;95084.59;;;;
2020/06/30 00:50:04;;;;;;;2.65;2.3;;;;;;;13.03;100;95084.59;;;;
2020/06/30 00:51:04;;;;;;;2.65;2.3;;;;;;;13.03;100;95084.59;;;;
2020/06/30 00:52:05;;;;;;;2.65;2.3;;;;;;;13.03;100;95084.59;;;;
2020/06/30 00:53:05;;;;;;;2.65;2.3;;;;;;;13.03;100;95084.59;;;;
2020/06/30 00:54:06;;;;;;;2.65;2.3;;;;;;;13.03;100;95084.59;;;;
2020/06/30 00:55:07;;;;;;;2.65;2.3;;;;;;;13.03;100;95084.59;;;;
2020/06/30 00:56:07;;;;;;;2.65;2.3;;;;;;;13.03;100;95084.59;;;;
2020/06/30 00:57:08;;;;;;;2.8;2.15;;;;;;;12.96;100;95077.18;;;;
2020/06/30 00:58:08;;;;;;;2.8;2.15;;;;;;;12.96;100;95077.18;;;;
2020/06/30 00:59:11;;;;;;;2.8;2.15;;;;;;;12.96;100;95077.18;;;;
2020/06/30 01:00:11;;;;;;;2.8;2.15;;;;;;;12.96;100;95077.18;;;;
2020/06/30 01:01:12;;;;;;;2.8;2.15;;;;;;;12.96;100;95077.18;;;;
2020/06/30 01:02:12;;;;;;;2.8;2.15;;;;;;;12.96;100;95077.18;;;;
2020/06/30 01:03:13;;;;;;;2.8;2.15;;;;;;;12.96;100;95077.18;;;;
2020/06/30 01:04:13;;;;;;;2.8;2.15;;;;;;;12.96;100;95077.18;;;;
2020/06/30 01:05:13;;;;;;;2.8;2.15;;;;;;;12.96;100;95077.18;;;;
2020/06/30 01:06:14;;;;;;;2.8;2.15;;;;;;;12.96;100;95077.18;;;;
2020/06/30 01:07:14;;;;;;;2.8;2.15;;;;;;;12.96;100;95077.18;;;;
2020/06/30 01:08:15;;;;;;;2.4;2.2;;;;;;;12.98;100;95076.81;;;;
2020/06/30 01:09:15;;;;;;;2.4;2.2;;;;;;;12.98;100;95076.81;;;;
2020/06/30 01:10:16;;;;;;;2.4;2.2;;;;;;;12.98;100;95076.81;;;;
2020/06/30 01:11:16;;;;;;;2.4;2.2;;;;;;;12.98;100;95076.81;;;;
2020/06/30 01:12:18;;;;;;;2.4;2.2;;;;;;;12.98;100;95076.81;;;;
2020/06/30 01:13:19;;;;;;;2.4;2.2;;;;;;;12.98;100;95076.81;;;;
2020/06/30 01:14:19;;;;;;;2.4;2.2;;;;;;;12.98;100;95076.81;;;;
2020/06/30 01:15:19;;;;;;;2.4;2.2;;;;;;;12.98;100;95076.81;;;;
2020/06/30 01:16:20;;;;;;;2.4;2.2;;;;;;;12.98;100;95076.81;;;;
2020/06/30 01:17:20;;;;;;;2.4;2.2;;;;;;;12.98;100;95076.81;;;;
2020/06/30 01:18:21;;;;;;;6.25;2.7;;;;;;;13.03;100;95074.28;;;;
2020/06/30 01:19:21;;;;;;;6.25;2.7;;;;;;;13.03;100;95074.28;;;;
2020/06/30 01:20:22;;;;;;;6.25;2.7;;;;;;;13.03;100;95074.28;;;;
2020/06/30 01:21:22;;;;;;;6.25;2.7;;;;;;;13.03;100;95074.28;;;;
2020/06/30 01:22:23;;;;;;;6.25;2.7;;;;;;;13.03;100;95074.28;;;;
2020/06/30 01:23:23;;;;;;;6.25;2.7;;;;;;;13.03;100;95074.28;;;;
2020/06/30 01:24:24;;;;;;;6.25;2.7;;;;;;;13.03;100;95074.28;;;;
2020/06/30 01:25:24;;;;;;;6.25;2.7;;;;;;;13.03;100;95074.28;;;;
2020/06/30 01:26:25;;;;;;;6.25;2.7;;;;;;;13.03;100;95074.28;;;;
2020/06/30 01:27:25;;;;;;;6.25;2.7;;;;;;;13.03;100;95074.28;;;;
2020/06/30 01:28:26;;;;;;;6.25;2.7;;;;;;;13.03;100;95074.28;;;;
2020/06/30 01:29:28;;;;;;;2.4;2.2;;;;;;;13.03;100;95086.36;;;;
2020/06/30 01:30:28;;;;;;;2.4;2.2;;;;;;;13.03;100;95086.36;;;;
2020/06/30 01:31:29;;;;;;;2.4;2.2;;;;;;;13.03;100;95086.36;;;;
2020/06/30 01:32:29;;;;;;;2.4;2.2;;;;;;;13.03;100;95086.36;;;;
2020/06/30 01:33:30;;;;;;;2.4;2.2;;;;;;;13.03;100;95086.36;;;;
2020/06/30 01:34:30;;;;;;;2.4;2.2;;;;;;;13.03;100;95086.36;;;;
2020/06/30 01:35:31;;;;;;;2.4;2.2;;;;;;;13.03;100;95086.36;;;;
2020/06/30 01:36:31;;;;;;;2.4;2.2;;;;;;;13.03;100;95086.36;;;;
2020/06/30 01:37:32;;;;;;;2.4;2.2;;;;;;;13.03;100;95086.36;;;;
2020/06/30 01:38:32;;;;;;;2.4;2.2;;;;;;;13.03;100;95086.36;;;;
2020/06/30 01:39:33;;;;;;;2.5;2.2;;;;;;;12.92;100;95082.4;;;;
2020/06/30 01:40:33;;;;;;;2.5;2.2;;;;;;;12.92;100;95082.4;;;;
2020/06/30 01:41:34;;;;;;;2.5;2.2;;;;;;;12.92;100;95082.4;;;;
2020/06/30 01:42:34;;;;;;;2.5;2.2;;;;;;;12.92;100;95082.4;;;;
2020/06/30 01:43:35;;;;;;;2.5;2.2;;;;;;;12.92;100;95082.4;;;;
2020/06/30 01:44:35;;;;;;;2.5;2.2;;;;;;;12.92;100;95082.4;;;;
2020/06/30 01:45:35;;;;;;;2.5;2.2;;;;;;;12.92;100;95082.4;;;;
2020/06/30 01:46:36;;;;;;;2.5;2.2;;;;;;;12.92;100;95082.4;;;;
2020/06/30 01:47:36;;;;;;;2.5;2.2;;;;;;;12.92;100;95082.4;;;;
2020/06/30 01:48:37;;;;;;;2.5;2.2;;;;;;;12.92;100;95082.4;;;;
2020/06/30 01:49:37;;;;;;;2.5;2.2;;;;;;;12.92;100;95082.4;;;;
2020/06/30 01:50:38;;;;;;;3;2.1;;;;;;;12.88;100;95084.95;;;;
2020/06/30 01:51:38;;;;;;;3;2.1;;;;;;;12.88;100;95084.95;;;;
2020/06/30 01:52:39;;;;;;;3;2.1;;;;;;;12.88;100;95084.95;;;;
2020/06/30 01:53:39;;;;;;;3;2.1;;;;;;;12.88;100;95084.95;;;;
2020/06/30 01:54:40;;;;;;;3;2.1;;;;;;;12.88;100;95084.95;;;;
2020/06/30 01:55:41;;;;;;;3;2.1;;;;;;;12.88;100;95084.95;;;;
2020/06/30 01:56:41;;;;;;;3;2.1;;;;;;;12.88;100;95084.95;;;;
2020/06/30 01:57:42;;;;;;;3;2.1;;;;;;;12.88;100;95084.95;;;;
2020/06/30 01:58:42;;;;;;;3;2.1;;;;;;;12.88;100;95084.95;;;;
2020/06/30 01:59:43;;;;;;;3;2.1;;;;;;;12.88;100;95084.95;;;;
2020/06/30 02:00:43;;;;;;;2.8;2.35;;;;;;;12.84;100;95083.29;;;;
2020/06/30 02:01:44;;;;;;;2.8;2.35;;;;;;;12.84;100;95083.29;;;;
2020/06/30 02:02:45;;;;;;;2.8;2.35;;;;;;;12.84;100;95083.29;;;;
2020/06/30 02:03:45;;;;;;;2.8;2.35;;;;;;;12.84;100;95083.29;;;;
2020/06/30 02:04:46;;;;;;;2.8;2.35;;;;;;;12.84;100;95083.29;;;;
2020/06/30 02:05:46;;;;;;;2.8;2.35;;;;;;;12.84;100;95083.29;;;;
2020/06/30 02:06:47;;;;;;;2.8;2.35;;;;;;;12.84;100;95083.29;;;;
2020/06/30 02:07:47;;;;;;;2.8;2.35;;;;;;;12.84;100;95083.29;;;;
2020/06/30 02:08:48;;;;;;;2.8;2.35;;;;;;;12.84;100;95083.29;;;;
2020/06/30 02:09:48;;;;;;;2.8;2.35;;;;;;;12.84;100;95083.29;;;;
2020/06/30 02:10:49;;;;;;;2.8;2.35;;;;;;;12.84;100;95083.29;;;;
2020/06/30 02:11:49;;;;;;;4.15;2.4;;;;;;;12.77;100;95083.06;;;;
2020/06/30 02:12:49;;;;;;;4.15;2.4;;;;;;;12.77;100;95083.06;;;;
2020/06/30 02:13:50;;;;;;;4.15;2.4;;;;;;;12.77;100;95083.06;;;;
2020/06/30 02:14:51;;;;;;;4.15;2.4;;;;;;;12.77;100;95083.06;;;;
2020/06/30 02:15:51;;;;;;;4.15;2.4;;;;;;;12.77;100;95083.06;;;;
2020/06/30 02:16:51;;;;;;;4.15;2.4;;;;;;;12.77;100;95083.06;;;;
2020/06/30 02:17:52;;;;;;;4.15;2.4;;;;;;;12.77;100;95083.06;;;;
2020/06/30 02:18:52;;;;;;;4.15;2.4;;;;;;;12.77;100;95083.06;;;;
2020/06/30 02:19:53;;;;;;;4.15;2.4;;;;;;;12.77;100;95083.06;;;;
2020/06/30 02:20:53;;;;;;;4.15;2.4;;;;;;;12.77;100;95083.06;;;;
2020/06/30 02:21:54;;;;;;;2.700001;2.4;;;;;;;12.68;100;95077.81;;;;
2020/06/30 02:22:54;;;;;;;2.700001;2.4;;;;;;;12.68;100;95077.81;;;;
2020/06/30 02:23:55;;;;;;;2.700001;2.4;;;;;;;12.68;100;95077.81;;;;
2020/06/30 02:24:55;;;;;;;2.700001;2.4;;;;;;;12.68;100;95077.81;;;;
2020/06/30 02:25:56;;;;;;;2.700001;2.4;;;;;;;12.68;100;95077.81;;;;
2020/06/30 02:26:56;;;;;;;2.700001;2.4;;;;;;;12.68;100;95077.81;;;;
2020/06/30 02:27:57;;;;;;;2.700001;2.4;;;;;;;12.68;100;95077.81;;;;
2020/06/30 02:28:57;;;;;;;2.700001;2.4;;;;;;;12.68;100;95077.81;;;;
2020/06/30 02:29:58;;;;;;;2.700001;2.4;;;;;;;12.68;100;95077.81;;;;
2020/06/30 02:30:58;;;;;;;2.700001;2.4;;;;;;;12.68;100;95077.81;;;;
2020/06/30 02:31:59;;;;;;;2.700001;2.4;;;;;;;12.68;100;95077.81;;;;
2020/06/30 02:32:59;;;;;;;2.85;2.65;;;;;;;12.72;100;95084.36;;;;
2020/06/30 02:33:59;;;;;;;2.85;2.65;;;;;;;12.72;100;95084.36;;;;
2020/06/30 02:35:00;;;;;;;2.85;2.65;;;;;;;12.72;100;95084.36;;;;
2020/06/30 02:36:01;;;;;;;2.85;2.65;;;;;;;12.72;100;95084.36;;;;
2020/06/30 02:37:01;;;;;;;2.85;2.65;;;;;;;12.72;100;95084.36;;;;
2020/06/30 02:38:02;;;;;;;2.85;2.65;;;;;;;12.72;100;95084.36;;;;
2020/06/30 02:39:02;;;;;;;2.85;2.65;;;;;;;12.72;100;95084.36;;;;
2020/06/30 02:40:07;;;;;;;2.85;2.65;;;;;;;12.72;100;95084.36;;;;
2020/06/30 02:41:07;;;;;;;2.85;2.65;;;;;;;12.72;100;95084.36;;;;
2020/06/30 02:42:08;;;;;;;2.85;2.65;;;;;;;12.72;100;95084.36;;;;
2020/06/30 02:43:08;;;;;;;2.95;2.7;;;;;;;12.76;100;95082.37;;;;
2020/06/30 02:44:09;;;;;;;2.95;2.7;;;;;;;12.76;100;95082.37;;;;
2020/06/30 02:45:09;;;;;;;2.95;2.7;;;;;;;12.76;100;95082.37;;;;
2020/06/30 02:46:10;;;;;;;2.95;2.7;;;;;;;12.76;100;95082.37;;;;
2020/06/30 02:47:10;;;;;;;2.95;2.7;;;;;;;12.76;100;95082.37;;;;
2020/06/30 02:48:11;;;;;;;2.95;2.7;;;;;;;12.76;100;95082.37;;;;
2020/06/30 02:49:11;;;;;;;2.95;2.7;;;;;;;12.76;100;95082.37;;;;
2020/06/30 02:50:12;;;;;;;2.95;2.7;;;;;;;12.76;100;95082.37;;;;
2020/06/30 02:51:12;;;;;;;2.95;2.7;;;;;;;12.76;100;95082.37;;;;
2020/06/30 02:52:13;;;;;;;2.95;2.7;;;;;;;12.76;100;95082.37;;;;
2020/06/30 02:53:13;;;;;;;2.95;2.7;;;;;;;12.76;100;95082.37;;;;
2020/06/30 02:54:14;;;;;;;4.85;2.65;;;;;;;12.79;100;95078.2;;;;
2020/06/30 02:55:14;;;;;;;4.85;2.65;;;;;;;12.79;100;95078.2;;;;
2020/06/30 02:56:15;;;;;;;4.85;2.65;;;;;;;12.79;100;95078.2;;;;
2020/06/30 02:57:15;;;;;;;4.85;2.65;;;;;;;12.79;100;95078.2;;;;
2020/06/30 02:58:16;;;;;;;4.85;2.65;;;;;;;12.79;100;95078.2;;;;
2020/06/30 02:59:16;;;;;;;4.85;2.65;;;;;;;12.79;100;95078.2;;;;
2020/06/30 03:00:17;;;;;;;4.85;2.65;;;;;;;12.79;100;95078.2;;;;
2020/06/30 03:01:24;;;;;;;4.85;2.65;;;;;;;12.79;100;95078.2;;;;
2020/06/30 03:02:25;;;;;;;4.85;2.65;;;;;;;12.79;100;95078.2;;;;
2020/06/30 03:03:26;;;;;;;4.85;2.65;;;;;;;12.79;100;95078.2;;;;
2020/06/30 03:04:26;;;;;;;2.9;2.65;;;;;;;12.65;100;95083.33;;;;
2020/06/30 03:05:27;;;;;;;2.9;2.65;;;;;;;12.65;100;95083.33;;;;
2020/06/30 03:06:27;;;;;;;2.9;2.65;;;;;;;12.65;100;95083.33;;;;
2020/06/30 03:07:28;;;;;;;2.9;2.65;;;;;;;12.65;100;95083.33;;;;
2020/06/30 03:08:28;;;;;;;2.9;2.65;;;;;;;12.65;100;95083.33;;;;
2020/06/30 03:09:29;;;;;;;2.9;2.65;;;;;;;12.65;100;95083.33;;;;
2020/06/30 03:10:29;;;;;;;2.9;2.65;;;;;;;12.65;100;95083.33;;;;
2020/06/30 03:11:30;;;;;;;2.9;2.65;;;;;;;12.65;100;95083.33;;;;
2020/06/30 03:12:30;;;;;;;2.9;2.65;;;;;;;12.65;100;95083.33;;;;
2020/06/30 03:13:31;;;;;;;2.9;2.65;;;;;;;12.65;100;95083.33;;;;
2020/06/30 03:14:31;;;;;;;2.9;2.65;;;;;;;12.65;100;95083.33;;;;
2020/06/30 03:15:31;;;;;;;3.2;2.7;;;;;;;12.58;100;95089.48;;;;
2020/06/30 03:16:32;;;;;;;3.2;2.7;;;;;;;12.58;100;95089.48;;;;
2020/06/30 03:17:32;;;;;;;3.2;2.7;;;;;;;12.58;100;95089.48;;;;
2020/06/30 03:18:33;;;;;;;3.2;2.7;;;;;;;12.58;100;95089.48;;;;
2020/06/30 03:19:34;;;;;;;3.2;2.7;;;;;;;12.58;100;95089.48;;;;
2020/06/30 03:20:34;;;;;;;3.2;2.7;;;;;;;12.58;100;95089.48;;;;
2020/06/30 03:21:35;;;;;;;3.2;2.7;;;;;;;12.58;100;95089.48;;;;
2020/06/30 03:22:35;;;;;;;3.2;2.7;;;;;;;12.58;100;95089.48;;;;
2020/06/30 03:23:36;;;;;;;3.2;2.7;;;;;;;12.58;100;95089.48;;;;
2020/06/30 03:24:36;;;;;;;3.2;2.7;;;;;;;12.58;100;95089.48;;;;
2020/06/30 03:25:37;;;;;;;5.4;2.900001;;;;;;;12.42;100;95098.91;;;;
2020/06/30 03:26:37;;;;;;;5.4;2.900001;;;;;;;12.42;100;95098.91;;;;
2020/06/30 03:27:38;;;;;;;5.4;2.900001;;;;;;;12.42;100;95098.91;;;;
2020/06/30 03:28:39;;;;;;;5.4;2.900001;;;;;;;12.42;100;95098.91;;;;
2020/06/30 03:29:39;;;;;;;5.4;2.900001;;;;;;;12.42;100;95098.91;;;;
2020/06/30 03:30:39;;;;;;;5.4;2.900001;;;;;;;12.42;100;95098.91;;;;
2020/06/30 03:31:40;;;;;;;5.4;2.900001;;;;;;;12.42;100;95098.91;;;;
2020/06/30 03:32:40;;;;;;;5.4;2.900001;;;;;;;12.42;100;95098.91;;;;
2020/06/30 03:33:41;;;;;;;5.4;2.900001;;;;;;;12.42;100;95098.91;;;;
2020/06/30 03:34:41;;;;;;;5.4;2.900001;;;;;;;12.42;100;95098.91;;;;
2020/06/30 03:35:42;;;;;;;5.4;2.900001;;;;;;;12.42;100;95098.91;;;;
2020/06/30 03:36:42;;;;;;;3.15;2.85;;;;;;;12.36;100;95103.16;;;;
2020/06/30 03:37:43;;;;;;;3.15;2.85;;;;;;;12.36;100;95103.16;;;;
2020/06/30 03:38:43;;;;;;;3.15;2.85;;;;;;;12.36;100;95103.16;;;;
2020/06/30 03:39:44;;;;;;;3.15;2.85;;;;;;;12.36;100;95103.16;;;;
2020/06/30 03:40:44;;;;;;;3.15;2.85;;;;;;;12.36;100;95103.16;;;;
2020/06/30 03:41:45;;;;;;;3.15;2.85;;;;;;;12.36;100;95103.16;;;;
2020/06/30 03:42:45;;;;;;;3.15;2.85;;;;;;;12.36;100;95103.16;;;;
2020/06/30 03:43:46;;;;;;;3.15;2.85;;;;;;;12.36;100;95103.16;;;;
2020/06/30 03:44:49;;;;;;;3.15;2.85;;;;;;;12.36;100;95103.16;;;;
2020/06/30 03:45:50;;;;;;;3.15;2.85;;;;;;;12.36;100;95103.16;;;;
2020/06/30 03:46:50;;;;;;;3.6;3.3;;;;;;;12.29;100;95111.45;;;;
2020/06/30 03:47:51;;;;;;;3.6;3.3;;;;;;;12.29;100;95111.45;;;;
2020/06/30 03:48:52;;;;;;;3.6;3.3;;;;;;;12.29;100;95111.45;;;;
2020/06/30 03:49:52;;;;;;;3.6;3.3;;;;;;;12.29;100;95111.45;;;;
2020/06/30 03:50:53;;;;;;;3.6;3.3;;;;;;;12.29;100;95111.45;;;;
2020/06/30 03:51:53;;;;;;;3.6;3.3;;;;;;;12.29;100;95111.45;;;;
2020/06/30 03:52:53;;;;;;;3.6;3.3;;;;;;;12.29;100;95111.45;;;;
2020/06/30 03:53:54;;;;;;;3.6;3.3;;;;;;;12.29;100;95111.45;;;;
2020/06/30 03:54:54;;;;;;;3.6;3.3;;;;;;;12.29;100;95111.45;;;;
2020/06/30 03:55:55;;;;;;;3.6;3.3;;;;;;;12.29;100;95111.45;;;;
2020/06/30 03:56:55;;;;;;;3.6;3.3;;;;;;;12.29;100;95111.45;;;;
2020/06/30 03:57:56;;;;;;;3.2;2.9;;;;;;;12.31;100;95118.38;;;;
2020/06/30 03:58:56;;;;;;;3.2;2.9;;;;;;;12.31;100;95118.38;;;;
2020/06/30 03:59:57;;;;;;;3.2;2.9;;;;;;;12.31;100;95118.38;;;;
2020/06/30 04:00:57;;;;;;;3.2;2.9;;;;;;;12.31;100;95118.38;;;;
2020/06/30 04:01:58;;;;;;;3.2;2.9;;;;;;;12.31;100;95118.38;;;;
2020/06/30 04:02:58;;;;;;;3.2;2.9;;;;;;;12.31;100;95118.38;;;;
2020/06/30 04:03:59;;;;;;;3.2;2.9;;;;;;;12.31;100;95118.38;;;;
2020/06/30 04:04:59;;;;;;;3.2;2.9;;;;;;;12.31;100;95118.38;;;;
2020/06/30 04:06:00;;;;;;;3.2;2.9;;;;;;;12.31;100;95118.38;;;;
2020/06/30 04:07:00;;;;;;;3.2;2.9;;;;;;;12.31;100;95118.38;;;;
2020/06/30 04:08:01;;;;;;;3.05;2.75;;;;;;;12.31;100;95114.73;;;;
2020/06/30 04:09:01;;;;;;;3.05;2.75;;;;;;;12.31;100;95114.73;;;;
2020/06/30 04:10:04;;;;;;;3.05;2.75;;;;;;;12.31;100;95114.73;;;;
2020/06/30 04:11:06;;;;;;;3.05;2.75;;;;;;;12.31;100;95114.73;;;;
2020/06/30 04:12:06;;;;;;;3.05;2.75;;;;;;;12.31;100;95114.73;;;;
2020/06/30 04:13:07;;;;;;;3.05;2.75;;;;;;;12.31;100;95114.73;;;;
2020/06/30 04:14:07;;;;;;;3.05;2.75;;;;;;;12.31;100;95114.73;;;;
2020/06/30 04:15:08;;;;;;;3.05;2.75;;;;;;;12.31;100;95114.73;;;;
2020/06/30 04:16:08;;;;;;;3.05;2.75;;;;;;;12.31;100;95114.73;;;;
2020/06/30 04:17:09;;;;;;;3.05;2.75;;;;;;;12.31;100;95114.73;;;;
2020/06/30 04:18:09;;;;;;;3.05;2.75;;;;;;;12.31;100;95114.73;;;;
2020/06/30 04:19:10;;;;;;;3.55;3.15;;;;;;;12.38;100;95114.53;;;;
2020/06/30 04:20:10;;;;;;;3.55;3.15;;;;;;;12.38;100;95114.53;;;;
2020/06/30 04:21:11;;;;;;;3.55;3.15;;;;;;;12.38;100;95114.53;;;;
2020/06/30 04:22:11;;;;;;;3.55;3.15;;;;;;;12.38;100;95114.53;;;;
2020/06/30 04:23:12;;;;;;;3.55;3.15;;;;;;;12.38;100;95114.53;;;;
2020/06/30 04:24:13;;;;;;;3.55;3.15;;;;;;;12.38;100;95114.53;;;;
2020/06/30 04:25:14;;;;;;;3.55;3.15;;;;;;;12.38;100;95114.53;;;;
2020/06/30 04:26:15;;;;;;;3.55;3.15;;;;;;;12.38;100;95114.53;;;;
2020/06/30 04:27:15;;;;;;;3.55;3.15;;;;;;;12.38;100;95114.53;;;;
2020/06/30 04:28:16;;;;;;;3.55;3.15;;;;;;;12.38;100;95114.53;;;;
2020/06/30 04:29:16;;;;;;;3.55;3.25;;;;;;;12.46;100;95120.36;;;;
2020/06/30 04:30:17;;;;;;;3.55;3.25;;;;;;;12.46;100;95120.36;;;;
2020/06/30 04:31:17;;;;;;;3.55;3.25;;;;;;;12.46;100;95120.36;;;;
2020/06/30 04:32:18;;;;;;;3.55;3.25;;;;;;;12.46;100;95120.36;;;;
2020/06/30 04:33:18;;;;;;;3.55;3.25;;;;;;;12.46;100;95120.36;;;;
2020/06/30 04:34:19;;;;;;;3.55;3.25;;;;;;;12.46;100;95120.36;;;;
2020/06/30 04:35:19;;;;;;;3.55;3.25;;;;;;;12.46;100;95120.36;;;;
2020/06/30 04:36:19;;;;;;;3.55;3.25;;;;;;;12.46;100;95120.36;;;;
2020/06/30 04:37:20;;;;;;;3.55;3.25;;;;;;;12.46;100;95120.36;;;;
2020/06/30 04:38:20;;;;;;;3.55;3.25;;;;;;;12.46;100;95120.36;;;;
2020/06/30 04:39:21;;;;;;;3.55;3.25;;;;;;;12.46;100;95120.36;;;;
2020/06/30 04:40:21;;;;;;;3.45;3.15;;;;;;;12.7;100;95123.22;;;;
2020/06/30 04:41:22;;;;;;;3.45;3.15;;;;;;;12.7;100;95123.22;;;;
2020/06/30 04:42:22;;;;;;;3.45;3.15;;;;;;;12.7;100;95123.22;;;;
2020/06/30 04:43:23;;;;;;;3.45;3.15;;;;;;;12.7;100;95123.22;;;;
2020/06/30 04:44:24;;;;;;;3.45;3.15;;;;;;;12.7;100;95123.22;;;;
2020/06/30 04:45:24;;;;;;;3.45;3.15;;;;;;;12.7;100;95123.22;;;;
2020/06/30 04:46:25;;;;;;;3.45;3.15;;;;;;;12.7;100;95123.22;;;;
2020/06/30 04:47:25;;;;;;;3.45;3.15;;;;;;;12.7;100;95123.22;;;;
2020/06/30 04:48:26;;;;;;;3.45;3.15;;;;;;;12.7;100;95123.22;;;;
2020/06/30 04:49:26;;;;;;;3.45;3.15;;;;;;;12.7;100;95123.22;;;;
2020/06/30 04:50:27;;;;;;;3.45;3.15;;;;;;;13;100;95114.48;;;;
2020/06/30 04:51:27;;;;;;;3.45;3.15;;;;;;;13;100;95114.48;;;;
2020/06/30 04:52:28;;;;;;;3.45;3.15;;;;;;;13;100;95114.48;;;;
2020/06/30 04:53:28;;;;;;;3.45;3.15;;;;;;;13;100;95114.48;;;;
2020/06/30 04:54:29;;;;;;;3.45;3.15;;;;;;;13;100;95114.48;;;;
2020/06/30 04:55:29;;;;;;;3.45;3.15;;;;;;;13;100;95114.48;;;;
2020/06/30 04:56:30;;;;;;;3.45;3.15;;;;;;;13;100;95114.48;;;;
2020/06/30 04:57:30;;;;;;;3.45;3.15;;;;;;;13;100;95114.48;;;;
2020/06/30 04:58:31;;;;;;;3.45;3.15;;;;;;;13;100;95114.48;;;;
2020/06/30 04:59:31;;;;;;;3.45;3.15;;;;;;;13;100;95114.48;;;;
2020/06/30 05:00:32;;;;;;;3.45;3.15;;;;;;;13;100;95114.48;;;;
2020/06/30 05:01:32;;;;;;;3.55;3.25;;;;;;;13.39;100;95115.17;;;;
2020/06/30 05:02:33;;;;;;;3.55;3.25;;;;;;;13.39;100;95115.17;;;;
2020/06/30 05:03:33;;;;;;;3.55;3.25;;;;;;;13.39;100;95115.17;;;;
2020/06/30 05:04:34;;;;;;;3.55;3.25;;;;;;;13.39;100;95115.17;;;;
2020/06/30 05:05:34;;;;;;;3.55;3.25;;;;;;;13.39;100;95115.17;;;;
2020/06/30 05:06:35;;;;;;;3.55;3.25;;;;;;;13.39;100;95115.17;;;;
2020/06/30 05:07:35;;;;;;;3.55;3.25;;;;;;;13.39;100;95115.17;;;;
2020/06/30 05:08:36;;;;;;;3.55;3.25;;;;;;;13.39;100;95115.17;;;;
2020/06/30 05:09:36;;;;;;;3.55;3.25;;;;;;;13.39;100;95115.17;;;;
2020/06/30 05:10:37;;;;;;;3.55;3.25;;;;;;;13.39;100;95115.17;;;;
2020/06/30 05:11:37;;;;;;;3.2;2.9;;;;;;;13.84;100;95128.59;;;;
2020/06/30 05:12:38;;;;;;;3.2;2.9;;;;;;;13.84;100;95128.59;;;;
2020/06/30 05:13:38;;;;;;;3.2;2.9;;;;;;;13.84;100;95128.59;;;;
2020/06/30 05:14:39;;;;;;;3.2;2.9;;;;;;;13.84;100;95128.59;;;;
2020/06/30 05:15:39;;;;;;;3.2;2.9;;;;;;;13.84;100;95128.59;;;;
2020/06/30 05:16:40;;;;;;;3.2;2.9;;;;;;;13.84;100;95128.59;;;;
2020/06/30 05:17:40;;;;;;;3.2;2.9;;;;;;;13.84;100;95128.59;;;;
2020/06/30 05:18:41;;;;;;;3.2;2.9;;;;;;;13.84;100;95128.59;;;;
2020/06/30 05:19:41;;;;;;;3.2;2.9;;;;;;;13.84;100;95128.59;;;;
2020/06/30 05:20:42;;;;;;;3.2;2.9;;;;;;;13.84;100;95128.59;;;;
2020/06/30 05:21:42;;;;;;;3.2;2.9;;;;;;;13.84;100;95128.59;;;;
2020/06/30 05:22:43;;;;;;;3.1;2.6;;;;;;;14.48;100;95113.56;;;;
2020/06/30 05:23:43;;;;;;;3.1;2.6;;;;;;;14.48;100;95113.56;;;;
2020/06/30 05:24:44;;;;;;;3.1;2.6;;;;;;;14.48;100;95113.56;;;;
2020/06/30 05:25:44;;;;;;;3.1;2.6;;;;;;;14.48;100;95113.56;;;;
2020/06/30 05:26:44;;;;;;;3.1;2.6;;;;;;;14.48;100;95113.56;;;;
2020/06/30 05:27:45;;;;;;;3.1;2.6;;;;;;;14.48;100;95113.56;;;;
2020/06/30 05:28:45;;;;;;;3.1;2.6;;;;;;;14.48;100;95113.56;;;;
2020/06/30 05:29:46;;;;;;;3.1;2.6;;;;;;;14.48;100;95113.56;;;;
2020/06/30 05:30:47;;;;;;;3.1;2.6;;;;;;;14.48;100;95113.56;;;;
2020/06/30 05:31:47;;;;;;;3.1;2.6;;;;;;;14.48;100;95113.56;;;;
2020/06/30 05:32:47;;;;;;;2.35;2.15;;;;;;;15.07;100;95117.05;;;;
2020/06/30 05:33:48;;;;;;;2.35;2.15;;;;;;;15.07;100;95117.05;;;;
2020/06/30 05:34:49;;;;;;;2.35;2.15;;;;;;;15.07;100;95117.05;;;;
2020/06/30 05:35:49;;;;;;;2.35;2.15;;;;;;;15.07;100;95117.05;;;;
2020/06/30 05:36:50;;;;;;;2.35;2.15;;;;;;;15.07;100;95117.05;;;;
2020/06/30 05:37:50;;;;;;;2.35;2.15;;;;;;;15.07;100;95117.05;;;;
2020/06/30 05:38:51;;;;;;;2.35;2.15;;;;;;;15.07;100;95117.05;;;;
2020/06/30 05:39:51;;;;;;;2.35;2.15;;;;;;;15.07;100;95117.05;;;;
2020/06/30 05:40:52;;;;;;;2.35;2.15;;;;;;;15.07;100;95117.05;;;;
2020/06/30 05:41:52;;;;;;;2.35;2.15;;;;;;;15.07;100;95117.05;;;;
2020/06/30 05:42:53;;;;;;;2.35;2.15;;;;;;;15.07;100;95117.05;;;;
2020/06/30 05:43:53;;;;;;;2.05;1.8;;;;;;;15.73;100;95122.11;;;;
2020/06/30 05:44:54;;;;;;;2.05;1.8;;;;;;;15.73;100;95122.11;;;;
2020/06/30 05:45:54;;;;;;;2.05;1.8;;;;;;;15.73;100;95122.11;;;;
2020/06/30 05:46:55;;;;;;;2.05;1.8;;;;;;;15.73;100;95122.11;;;;
2020/06/30 05:47:55;;;;;;;2.05;1.8;;;;;;;15.73;100;95122.11;;;;
2020/06/30 05:48:56;;;;;;;2.05;1.8;;;;;;;15.73;100;95122.11;;;;
2020/06/30 05:49:56;;;;;;;2.05;1.8;;;;;;;15.73;100;95122.11;;;;
2020/06/30 05:50:57;;;;;;;2.05;1.8;;;;;;;15.73;100;95122.11;;;;
2020/06/30 05:51:57;;;;;;;2.05;1.8;;;;;;;15.73;100;95122.11;;;;
2020/06/30 05:52:58;;;;;;;2.05;1.8;;;;;;;15.73;100;95122.11;;;;
2020/06/30 05:53:58;;;;;;;2.9;2.05;;;;;;;16.25;100;95126.29;;;;
2020/06/30 05:54:58;;;;;;;2.9;2.05;;;;;;;16.25;100;95126.29;;;;
2020/06/30 05:55:59;;;;;;;2.9;2.05;;;;;;;16.25;100;95126.29;;;;
2020/06/30 05:56:59;;;;;;;2.9;2.05;;;;;;;16.25;100;95126.29;;;;
2020/06/30 05:58:00;;;;;;;2.9;2.05;;;;;;;16.25;100;95126.29;;;;
2020/06/30 05:59:00;;;;;;;2.9;2.05;;;;;;;16.25;100;95126.29;;;;
2020/06/30 06:00:01;;;;;;;2.9;2.05;;;;;;;16.25;100;95126.29;;;;
2020/06/30 06:01:05;;;;;;;2.9;2.05;;;;;;;16.25;100;95126.29;;;;
2020/06/30 06:02:06;;;;;;;2.9;2.05;;;;;;;16.25;100;95126.29;;;;
2020/06/30 06:03:07;;;;;;;2.9;2.05;;;;;;;16.25;100;95126.29;;;;
2020/06/30 06:04:07;;;;;;;2.9;2.05;;;;;;;16.25;100;95126.29;;;;
2020/06/30 06:05:08;;;;;;;1.85;1.75;;;;;;;16.79;100;95124.14;;;;
2020/06/30 06:06:09;;;;;;;1.85;1.75;;;;;;;16.79;100;95124.14;;;;
2020/06/30 06:07:10;;;;;;;1.85;1.75;;;;;;;16.79;100;95124.14;;;;
2020/06/30 06:08:10;;;;;;;1.85;1.75;;;;;;;16.79;100;95124.14;;;;
2020/06/30 06:09:10;;;;;;;1.85;1.75;;;;;;;16.79;100;95124.14;;;;
2020/06/30 06:10:11;;;;;;;1.85;1.75;;;;;;;16.79;100;95124.14;;;;
2020/06/30 06:11:11;;;;;;;1.85;1.75;;;;;;;16.79;100;95124.14;;;;
2020/06/30 06:12:12;;;;;;;1.85;1.75;;;;;;;16.79;100;95124.14;;;;
2020/06/30 06:13:12;;;;;;;1.85;1.75;;;;;;;16.79;100;95124.14;;;;
2020/06/30 06:14:13;;;;;;;1.85;1.75;;;;;;;16.79;100;95124.14;;;;